This is the latest recevied weather packets stored in our database for station/object HS3PQJ-1. If no packets are shown the sender has not sent any weather packets the latest 10 day(s).
| Time | Temp. | Humidity | Pressure | Rain* | Wind** | Luminosity | Snow |
|---|---|---|---|---|---|---|---|
| 1777209704 | 32.78° C | 78% | - | - | - | 0 W/m² | - |
| 1777208790 | 32.78° C | 82% | - | - | - | 0 W/m² | - |
| 1777207876 | 33.33° C | 81% | - | - | - | 0 W/m² | - |
| 1777206962 | 33.33° C | 83% | - | - | - | 0 W/m² | - |
| 1777206048 | 32.78° C | 78% | - | - | - | 0 W/m² | - |
| 1777205131 | 33.89° C | 84% | - | - | - | 0 W/m² | - |
| 1777204217 | 33.33° C | 83% | - | - | - | 0 W/m² | - |
| 1777203301 | 33.89° C | 85% | - | - | - | 0 W/m² | - |
| 1777202384 | 33.89° C | 82% | - | - | - | 0 W/m² | - |
| 1777201467 | 33.89° C | 81% | - | - | - | 0 W/m² | - |
| 1777200553 | 34.44° C | 86% | - | - | - | 0 W/m² | - |
| 1777199639 | 34.44° C | 86% | - | - | - | 0 W/m² | - |
| 1777198725 | 34.44° C | 86% | - | - | - | 0 W/m² | - |
| 1777197809 | 34.44° C | 87% | - | - | - | 0 W/m² | - |
| 1777196895 | 34.44° C | 87% | - | - | - | 0 W/m² | - |
| 1777195978 | 34.44° C | 87% | - | - | - | 0 W/m² | - |
| 1777195064 | 34.44° C | 87% | - | - | - | 0 W/m² | - |
| 1777194150 | 34.44° C | 87% | - | - | - | 0 W/m² | - |
| 1777193236 | 34.44° C | 87% | - | - | - | 0 W/m² | - |
| 1777192322 | 34.44° C | 87% | - | - | - | 0 W/m² | - |
| 1777191408 | 34.44° C | 87% | - | - | - | 0 W/m² | - |
| 1777190492 | 34.44° C | 87% | - | - | - | 0 W/m² | - |
| 1777189578 | 34.44° C | 86% | - | - | - | 0 W/m² | - |
| 1777188664 | 34.44° C | 86% | - | - | - | 0 W/m² | - |
| 1777187750 | 34.44° C | 85% | - | - | - | 0 W/m² | - |
* Rain since midnight (hover to see other rain measurements)
** Current wind speed in m/s (hover to see current wind gust speed)